createdAt,value
2023-05-09T00:00:34.205Z,38.66
2023-05-09T00:01:34.172Z,38.65
2023-05-09T00:02:34.288Z,38.65
2023-05-09T00:03:34.340Z,38.67
2023-05-09T00:04:34.497Z,38.65
2023-05-09T00:05:34.430Z,38.65
2023-05-09T00:06:34.479Z,38.66
2023-05-09T00:07:34.570Z,38.63
2023-05-09T00:08:34.607Z,38.64
2023-05-09T00:09:34.674Z,38.62
2023-05-09T00:10:34.739Z,38.60
2023-05-09T00:11:34.790Z,38.61
2023-05-09T00:12:34.802Z,38.62
2023-05-09T00:13:34.860Z,38.61
2023-05-09T00:14:34.943Z,38.62
2023-05-09T00:15:34.986Z,38.60
2023-05-09T00:16:35.139Z,38.62
2023-05-09T00:17:35.116Z,38.61
2023-05-09T00:18:35.147Z,38.63
2023-05-09T00:19:35.161Z,38.60
2023-05-09T00:20:35.225Z,38.59
2023-05-09T00:21:35.243Z,38.58
2023-05-09T00:22:35.279Z,38.58
2023-05-09T00:23:35.348Z,38.58
2023-05-09T00:24:35.357Z,38.55
2023-05-09T00:25:35.396Z,38.62
2023-05-09T00:26:35.445Z,38.58
2023-05-09T00:27:35.519Z,38.57
2023-05-09T00:28:35.538Z,38.57
2023-05-09T00:29:35.595Z,38.55
2023-05-09T00:30:35.617Z,38.57
2023-05-09T00:31:35.665Z,38.57
2023-05-09T00:32:35.854Z,38.56
2023-05-09T00:33:35.760Z,38.55
2023-05-09T00:34:35.764Z,38.54
2023-05-09T00:35:35.818Z,38.57
2023-05-09T00:36:35.837Z,38.56
2023-05-09T00:37:35.899Z,38.55
2023-05-09T00:38:35.950Z,38.54
2023-05-09T00:39:35.979Z,38.55
2023-05-09T00:40:36.033Z,38.55
2023-05-09T00:41:36.058Z,38.56
2023-05-09T00:42:36.090Z,38.54
2023-05-09T00:43:36.127Z,38.55
2023-05-09T00:44:36.200Z,38.54
2023-05-09T00:45:36.223Z,38.53
2023-05-09T00:46:36.363Z,38.54
2023-05-09T00:47:36.373Z,38.53
2023-05-09T00:48:36.500Z,38.53
2023-05-09T00:49:36.460Z,38.54
2023-05-09T00:50:36.490Z,38.51
2023-05-09T00:51:36.525Z,38.54
2023-05-09T00:52:36.536Z,38.51
2023-05-09T00:53:36.583Z,38.50
2023-05-09T00:54:36.596Z,38.51
2023-05-09T00:55:36.632Z,38.52
2023-05-09T00:56:36.707Z,38.49
2023-05-09T00:57:36.708Z,38.52
2023-05-09T00:58:36.716Z,38.51
2023-05-09T00:59:36.790Z,38.49
2023-05-09T01:00:36.793Z,38.51
2023-05-09T01:01:36.858Z,38.51
2023-05-09T01:02:36.974Z,38.50
2023-05-09T01:03:36.970Z,38.49
2023-05-09T01:04:37.051Z,38.50
2023-05-09T01:05:37.001Z,38.49
2023-05-09T01:06:37.075Z,38.49
2023-05-09T01:07:37.133Z,38.50
2023-05-09T01:08:37.139Z,38.49
2023-05-09T01:09:37.140Z,38.47
2023-05-09T01:10:37.180Z,38.49
2023-05-09T01:11:37.195Z,38.47
2023-05-09T01:12:37.184Z,38.49
2023-05-09T01:13:37.200Z,38.48
2023-05-09T01:14:37.203Z,38.50
2023-05-09T01:15:37.303Z,38.46
2023-05-09T01:16:37.281Z,38.46
2023-05-09T01:17:37.306Z,38.48
2023-05-09T01:18:37.320Z,38.43
2023-05-09T01:19:37.365Z,38.45
2023-05-09T01:20:37.508Z,38.46
2023-05-09T01:21:37.421Z,38.44
2023-05-09T01:22:37.473Z,38.46
2023-05-09T01:23:37.499Z,38.45
2023-05-09T01:24:37.542Z,38.46
2023-05-09T01:25:37.581Z,38.46
2023-05-09T01:26:37.633Z,38.45
2023-05-09T01:27:37.636Z,38.45
2023-05-09T01:28:37.671Z,38.43
2023-05-09T01:29:37.676Z,38.45
2023-05-09T01:30:37.728Z,38.44
2023-05-09T01:31:37.719Z,38.46
2023-05-09T01:32:37.811Z,38.42
2023-05-09T01:33:37.781Z,38.45
2023-05-09T01:34:37.824Z,38.41
2023-05-09T01:35:37.878Z,38.42
2023-05-09T01:36:37.960Z,38.43
2023-05-09T01:37:37.867Z,38.41
2023-05-09T01:38:37.888Z,38.41
2023-05-09T01:39:37.918Z,38.42
2023-05-09T01:40:37.943Z,38.41
2023-05-09T01:41:37.992Z,38.44
2023-05-09T01:42:37.942Z,38.40
2023-05-09T01:43:38.016Z,38.41
2023-05-09T01:44:37.985Z,38.42
2023-05-09T01:45:38.012Z,38.40
2023-05-09T01:46:38.043Z,38.38
2023-05-09T01:47:38.040Z,38.42
2023-05-09T01:48:38.060Z,38.39
2023-05-09T01:49:38.043Z,38.39
2023-05-09T01:50:38.025Z,38.40
2023-05-09T01:51:38.048Z,38.39
2023-05-09T01:52:38.134Z,38.40
2023-05-09T01:53:38.051Z,38.40
2023-05-09T01:54:38.019Z,38.37
2023-05-09T01:55:38.024Z,38.38
2023-05-09T01:56:38.025Z,38.38
2023-05-09T01:57:38.052Z,38.40
2023-05-09T01:58:38.061Z,38.40
2023-05-09T01:59:38.019Z,38.37
2023-05-09T02:00:38.095Z,38.40
2023-05-09T02:01:38.080Z,38.37
2023-05-09T02:02:38.120Z,38.36
2023-05-09T02:03:38.048Z,38.38
2023-05-09T02:04:38.040Z,38.37
2023-05-09T02:05:38.084Z,38.37
2023-05-09T02:06:38.045Z,38.38
2023-05-09T02:07:38.046Z,38.38
2023-05-09T02:08:38.109Z,38.37
2023-05-09T02:09:38.024Z,38.36
2023-05-09T02:10:38.022Z,38.37
2023-05-09T02:11:38.026Z,38.37
2023-05-09T02:12:38.011Z,38.36
2023-05-09T02:13:38.037Z,38.37
2023-05-09T02:14:38.044Z,38.36
2023-05-09T02:15:38.068Z,38.33
2023-05-09T02:16:38.172Z,38.36
2023-05-09T02:17:38.190Z,38.35
2023-05-09T02:18:38.157Z,38.36
2023-05-09T02:19:38.117Z,38.34
2023-05-09T02:20:38.152Z,38.33
2023-05-09T02:21:38.149Z,38.34
2023-05-09T02:22:38.170Z,38.32
2023-05-09T02:23:38.110Z,38.33
2023-05-09T02:24:38.219Z,38.34
2023-05-09T02:25:38.170Z,38.32
2023-05-09T02:26:38.199Z,38.34
2023-05-09T02:27:38.147Z,38.33
2023-05-09T02:28:38.146Z,38.33
2023-05-09T02:29:38.148Z,38.33
2023-05-09T02:30:38.160Z,38.35
2023-05-09T02:31:38.242Z,38.33
2023-05-09T02:32:38.277Z,38.33
2023-05-09T02:33:38.229Z,38.32
2023-05-09T02:34:38.259Z,38.34
2023-05-09T02:35:38.257Z,38.32
2023-05-09T02:36:38.307Z,38.32
2023-05-09T02:37:38.272Z,38.33
2023-05-09T02:38:38.255Z,38.31
2023-05-09T02:39:38.280Z,38.30
2023-05-09T02:40:38.381Z,38.30
2023-05-09T02:41:38.284Z,38.31
2023-05-09T02:42:38.282Z,38.32
2023-05-09T02:43:38.286Z,38.32
2023-05-09T02:44:38.261Z,38.32
2023-05-09T02:45:38.271Z,38.33
2023-05-09T02:46:38.236Z,38.31
2023-05-09T02:47:38.281Z,38.32
2023-05-09T02:48:38.274Z,38.34
2023-05-09T02:49:38.303Z,38.33
2023-05-09T02:50:38.555Z,38.32
2023-05-09T02:51:38.302Z,38.31
2023-05-09T02:52:38.277Z,38.32
2023-05-09T02:53:38.317Z,38.31
2023-05-09T02:54:38.344Z,38.33
2023-05-09T02:55:38.377Z,38.32
2023-05-09T02:56:38.423Z,38.29
2023-05-09T02:57:38.346Z,38.31
2023-05-09T02:58:38.361Z,38.31
2023-05-09T02:59:38.334Z,38.32
2023-05-09T03:00:38.351Z,38.33
2023-05-09T03:01:38.372Z,38.31
2023-05-09T03:02:38.622Z,38.30
2023-05-09T03:03:38.439Z,38.31
2023-05-09T03:04:38.358Z,38.32
2023-05-09T03:05:38.335Z,38.31
2023-05-09T03:06:38.347Z,38.29
2023-05-09T03:07:38.328Z,38.32
2023-05-09T03:08:38.369Z,38.28
2023-05-09T03:09:39.871Z,38.31
2023-05-09T03:10:38.410Z,38.31
2023-05-09T03:11:38.342Z,38.28
2023-05-09T03:12:38.380Z,38.29
2023-05-09T03:13:38.453Z,38.29
2023-05-09T03:14:38.288Z,38.29
2023-05-09T03:15:38.313Z,38.27
2023-05-09T03:16:38.314Z,38.29
2023-05-09T03:17:38.320Z,38.30
2023-05-09T03:18:38.284Z,38.29
2023-05-09T03:19:38.267Z,38.28
2023-05-09T03:20:38.221Z,38.27
2023-05-09T03:21:38.277Z,38.28
2023-05-09T03:22:38.259Z,38.29
2023-05-09T03:23:38.621Z,38.27
2023-05-09T03:24:38.217Z,38.27
2023-05-09T03:25:38.232Z,38.25
2023-05-09T03:26:38.241Z,38.27
2023-05-09T03:27:38.219Z,38.28
2023-05-09T03:28:38.305Z,38.26
2023-05-09T03:29:38.233Z,38.26
2023-05-09T03:30:38.176Z,38.26
2023-05-09T03:31:38.355Z,38.26
2023-05-09T03:32:38.255Z,38.26
2023-05-09T03:33:38.188Z,38.26
2023-05-09T03:34:38.159Z,38.27
2023-05-09T03:35:38.143Z,38.27
2023-05-09T03:36:38.154Z,38.23
2023-05-09T03:37:38.152Z,38.26
2023-05-09T03:38:38.121Z,38.25
2023-05-09T03:39:38.126Z,38.23
2023-05-09T03:40:38.123Z,38.26
2023-05-09T03:41:38.101Z,38.26
2023-05-09T03:42:38.112Z,38.24
2023-05-09T03:43:38.132Z,38.26
2023-05-09T03:44:38.188Z,38.23
2023-05-09T03:45:38.063Z,38.25
2023-05-09T03:46:38.130Z,38.26
2023-05-09T03:47:38.107Z,38.22
2023-05-09T03:48:38.093Z,38.23
2023-05-09T03:49:38.099Z,38.23
2023-05-09T03:50:38.039Z,38.22
2023-05-09T03:51:39.857Z,38.23
2023-05-09T03:52:38.055Z,38.23
2023-05-09T03:53:38.015Z,38.24
2023-05-09T03:54:38.031Z,38.25
2023-05-09T03:55:38.029Z,38.23
2023-05-09T03:56:38.015Z,38.22
2023-05-09T03:57:38.004Z,38.22
2023-05-09T03:58:38.017Z,38.20
2023-05-09T03:59:37.966Z,38.25
2023-05-09T04:00:38.072Z,38.23
2023-05-09T04:01:40.072Z,38.22
2023-05-09T04:02:38.023Z,38.20
2023-05-09T04:03:38.075Z,38.37
2023-05-09T04:04:37.961Z,38.46
2023-05-09T04:05:37.990Z,38.49
2023-05-09T04:06:38.038Z,38.52
2023-05-09T04:07:38.017Z,38.56
2023-05-09T04:08:38.053Z,38.64
2023-05-09T04:09:38.114Z,38.64
2023-05-09T04:10:38.101Z,38.71
2023-05-09T04:11:38.117Z,38.72
2023-05-09T04:12:38.118Z,38.76
2023-05-09T04:13:38.167Z,38.81
2023-05-09T04:14:38.189Z,38.86
2023-05-09T04:15:38.177Z,38.86
2023-05-09T04:16:38.365Z,38.89
2023-05-09T04:17:38.309Z,38.91
2023-05-09T04:18:38.265Z,38.87
2023-05-09T04:19:38.261Z,38.92
2023-05-09T04:20:38.276Z,38.97
2023-05-09T04:21:38.307Z,39.00
2023-05-09T04:22:38.361Z,38.97
2023-05-09T04:23:38.357Z,39.04
2023-05-09T04:24:38.410Z,39.03
2023-05-09T04:25:38.427Z,39.03
2023-05-09T04:26:38.528Z,39.07
2023-05-09T04:27:38.487Z,39.09
2023-05-09T04:28:38.608Z,39.06
2023-05-09T04:29:38.603Z,39.10
2023-05-09T04:30:38.657Z,39.12
2023-05-09T04:31:38.724Z,39.10
2023-05-09T04:32:38.796Z,39.07
2023-05-09T04:33:38.700Z,39.00
2023-05-09T04:34:38.740Z,38.99
2023-05-09T04:35:38.792Z,38.97
2023-05-09T04:36:38.751Z,38.93
2023-05-09T04:37:38.766Z,38.96
2023-05-09T04:38:38.765Z,38.92
2023-05-09T04:39:38.814Z,38.90
2023-05-09T04:40:38.848Z,38.90
2023-05-09T04:41:38.866Z,38.87
2023-05-09T04:42:38.899Z,38.86
2023-05-09T04:43:38.834Z,38.85
2023-05-09T04:44:38.906Z,38.82
2023-05-09T04:45:38.876Z,38.79
2023-05-09T04:46:38.941Z,38.79
2023-05-09T04:47:38.982Z,38.75
2023-05-09T04:48:38.979Z,38.77
2023-05-09T04:49:38.946Z,38.76
2023-05-09T04:50:38.953Z,38.73
2023-05-09T04:51:38.929Z,38.73
2023-05-09T04:52:38.929Z,38.72
2023-05-09T04:53:38.947Z,38.72
2023-05-09T04:54:38.955Z,38.66
2023-05-09T04:55:38.985Z,38.68
2023-05-09T04:56:39.006Z,38.68
2023-05-09T04:57:38.984Z,38.65
2023-05-09T04:58:39.004Z,38.65
2023-05-09T04:59:39.001Z,38.63
2023-05-09T05:00:39.013Z,38.65
2023-05-09T05:01:39.063Z,38.63
2023-05-09T05:02:39.120Z,38.64
2023-05-09T05:03:39.067Z,38.65
2023-05-09T05:04:39.173Z,38.62
2023-05-09T05:05:39.049Z,38.61
2023-05-09T05:06:39.063Z,38.65
2023-05-09T05:07:39.055Z,38.65
2023-05-09T05:08:39.071Z,38.64
2023-05-09T05:09:39.060Z,38.68
2023-05-09T05:10:39.164Z,38.63
2023-05-09T05:11:40.420Z,38.68
2023-05-09T05:12:39.098Z,38.67
2023-05-09T05:13:39.044Z,38.67
2023-05-09T05:14:39.076Z,38.71
2023-05-09T05:15:39.033Z,38.70
2023-05-09T05:16:39.147Z,38.67
2023-05-09T05:17:39.035Z,38.64
2023-05-09T05:18:39.032Z,38.68
2023-05-09T05:19:39.036Z,38.68
2023-05-09T05:20:39.194Z,38.70
2023-05-09T05:21:38.998Z,38.68
2023-05-09T05:22:39.016Z,38.68
2023-05-09T05:23:39.014Z,38.63
2023-05-09T05:24:38.995Z,38.68
2023-05-09T05:25:38.980Z,38.66
2023-05-09T05:26:38.966Z,38.68
2023-05-09T05:27:38.995Z,38.67
2023-05-09T05:28:38.945Z,38.65
2023-05-09T05:29:38.950Z,38.67
2023-05-09T05:30:38.951Z,38.67
2023-05-09T05:31:38.989Z,38.62
2023-05-09T05:32:38.949Z,38.77
2023-05-09T05:33:38.943Z,39.40
2023-05-09T05:34:38.920Z,39.38
2023-05-09T05:35:38.897Z,39.57
2023-05-09T05:36:38.984Z,39.51
2023-05-09T05:37:38.854Z,39.50
2023-05-09T05:38:38.901Z,40.07
2023-05-09T05:39:38.841Z,40.51
2023-05-09T05:40:38.994Z,40.79
2023-05-09T05:41:38.936Z,40.93
2023-05-09T05:42:38.835Z,41.06
2023-05-09T05:43:38.845Z,41.48
2023-05-09T05:44:38.854Z,41.41
2023-05-09T05:45:39.012Z,41.52
2023-05-09T05:46:39.704Z,41.94
2023-05-09T05:47:38.919Z,42.42
2023-05-09T05:48:38.798Z,42.34
2023-05-09T05:49:38.845Z,42.27
2023-05-09T05:50:38.940Z,42.48
2023-05-09T05:51:38.802Z,42.09
2023-05-09T05:52:38.885Z,42.41
2023-05-09T05:53:38.785Z,42.17
2023-05-09T05:54:38.781Z,41.93
2023-05-09T05:55:38.770Z,42.06
2023-05-09T05:56:38.794Z,42.33
2023-05-09T05:57:38.728Z,42.21
2023-05-09T05:58:38.743Z,42.13
2023-05-09T05:59:38.750Z,42.18
2023-05-09T06:00:38.710Z,42.09
2023-05-09T06:01:38.840Z,42.17
2023-05-09T06:02:38.959Z,42.25
2023-05-09T06:03:38.804Z,42.14
2023-05-09T06:04:38.723Z,41.94
2023-05-09T06:05:38.719Z,42.03
2023-05-09T06:06:38.716Z,41.98
2023-05-09T06:07:38.674Z,42.01
2023-05-09T06:08:38.782Z,41.90
2023-05-09T06:09:38.652Z,41.90
2023-05-09T06:10:38.825Z,41.85
2023-05-09T06:11:38.668Z,41.89
2023-05-09T06:12:38.679Z,41.82
2023-05-09T06:13:38.682Z,41.87
2023-05-09T06:14:38.712Z,41.94
2023-05-09T06:15:38.720Z,41.88
2023-05-09T06:16:38.725Z,41.86
2023-05-09T06:17:38.765Z,41.84
2023-05-09T06:18:38.821Z,41.55
2023-05-09T06:19:38.721Z,41.54
2023-05-09T06:20:38.734Z,41.22
2023-05-09T06:21:38.750Z,41.49
2023-05-09T06:22:38.752Z,41.61
2023-05-09T06:23:42.497Z,41.76
2023-05-09T06:24:39.856Z,41.69
2023-05-09T06:25:38.770Z,41.55
2023-05-09T06:26:38.882Z,41.49
2023-05-09T06:27:38.733Z,41.44
2023-05-09T06:28:38.801Z,41.45
2023-05-09T06:29:38.776Z,41.46
2023-05-09T06:30:38.752Z,41.51
2023-05-09T06:31:39.126Z,41.55
2023-05-09T06:32:38.806Z,41.55
2023-05-09T06:33:38.719Z,41.46
2023-05-09T06:34:38.681Z,41.60
2023-05-09T06:35:38.803Z,41.60
2023-05-09T06:36:38.777Z,41.45
2023-05-09T06:37:38.698Z,41.37
2023-05-09T06:38:38.650Z,41.08
2023-05-09T06:39:38.674Z,41.05
2023-05-09T06:40:38.670Z,41.23
2023-05-09T06:41:38.624Z,41.23
2023-05-09T06:42:38.687Z,41.31
2023-05-09T06:43:38.641Z,41.52
2023-05-09T06:44:38.925Z,41.63
2023-05-09T06:45:38.600Z,41.67
2023-05-09T06:46:38.720Z,41.58
2023-05-09T06:47:38.889Z,41.58
2023-05-09T06:48:38.744Z,41.75
2023-05-09T06:49:38.806Z,41.86
2023-05-09T06:50:38.906Z,41.85
2023-05-09T06:51:38.950Z,41.87
2023-05-09T06:52:38.957Z,41.94
2023-05-09T06:53:39.022Z,41.98
2023-05-09T06:54:39.057Z,41.98
2023-05-09T06:55:39.001Z,41.90
2023-05-09T06:56:39.183Z,41.85
2023-05-09T06:57:39.099Z,41.82
2023-05-09T06:58:39.269Z,41.73
2023-05-09T06:59:39.298Z,41.69
2023-05-09T07:00:39.111Z,41.63
2023-05-09T07:01:39.181Z,41.55
2023-05-09T07:02:39.206Z,41.50
2023-05-09T07:03:39.232Z,41.45
2023-05-09T07:04:39.409Z,41.44
2023-05-09T07:05:39.363Z,41.41
2023-05-09T07:06:39.476Z,41.29
2023-05-09T07:07:39.446Z,41.31
2023-05-09T07:08:39.541Z,41.27
2023-05-09T07:09:39.818Z,41.30
2023-05-09T07:10:39.692Z,41.22
2023-05-09T07:11:39.631Z,41.20
2023-05-09T07:12:39.765Z,41.22
2023-05-09T07:13:39.693Z,41.18
2023-05-09T07:14:39.681Z,41.23
2023-05-09T07:15:42.159Z,41.19
2023-05-09T07:16:39.763Z,41.16
2023-05-09T07:17:39.784Z,41.19
2023-05-09T07:18:39.695Z,41.19
2023-05-09T07:19:39.769Z,41.11
2023-05-09T07:20:39.686Z,41.20
2023-05-09T07:21:39.780Z,41.22
2023-05-09T07:22:39.790Z,41.15
2023-05-09T07:23:39.680Z,41.08
2023-05-09T07:24:39.687Z,41.15
2023-05-09T07:25:39.804Z,41.16
2023-05-09T07:26:39.648Z,41.15
2023-05-09T07:27:39.637Z,41.19
2023-05-09T07:28:39.757Z,41.17
2023-05-09T07:29:39.631Z,41.19
2023-05-09T07:30:39.685Z,41.12
2023-05-09T07:31:39.693Z,41.04
2023-05-09T07:32:39.609Z,41.05
2023-05-09T07:33:39.640Z,41.06
2023-05-09T07:34:39.682Z,41.13
2023-05-09T07:35:39.772Z,41.03
2023-05-09T07:36:39.877Z,41.08
2023-05-09T07:37:39.596Z,41.03
2023-05-09T07:38:39.578Z,40.98
2023-05-09T07:39:39.612Z,40.90
2023-05-09T07:40:39.720Z,40.91
2023-05-09T07:41:39.600Z,40.96
2023-05-09T07:42:39.587Z,40.93
2023-05-09T07:43:39.510Z,40.98
2023-05-09T07:44:39.595Z,40.91
2023-05-09T07:45:39.600Z,40.80
2023-05-09T07:46:39.794Z,40.72
2023-05-09T07:47:39.583Z,40.68
2023-05-09T07:48:39.549Z,40.60
2023-05-09T07:49:39.552Z,40.48
2023-05-09T07:50:40.363Z,40.56
2023-05-09T07:51:40.283Z,40.49
2023-05-09T07:52:39.484Z,40.56
2023-05-09T07:53:39.475Z,40.57
2023-05-09T07:54:39.804Z,40.54
2023-05-09T07:55:39.496Z,40.43
2023-05-09T07:56:39.437Z,40.50
2023-05-09T07:57:39.493Z,40.44
2023-05-09T07:58:39.397Z,40.25
2023-05-09T07:59:39.441Z,40.30
2023-05-09T08:00:39.506Z,40.33
2023-05-09T08:01:39.816Z,40.38
2023-05-09T08:02:39.495Z,40.38
2023-05-09T08:03:39.512Z,40.19
2023-05-09T08:04:41.667Z,40.26
2023-05-09T08:05:39.761Z,40.22
2023-05-09T08:06:39.659Z,40.22
2023-05-09T08:07:39.796Z,40.20
2023-05-09T08:08:39.843Z,40.08
2023-05-09T08:09:39.913Z,40.12
2023-05-09T08:10:39.894Z,40.08
2023-05-09T08:11:39.989Z,39.98
2023-05-09T08:12:40.382Z,40.03
2023-05-09T08:13:40.324Z,40.02
2023-05-09T08:14:40.125Z,40.07
2023-05-09T08:15:40.235Z,39.93
2023-05-09T08:16:40.385Z,39.78
2023-05-09T08:17:40.332Z,39.85
2023-05-09T08:18:40.427Z,39.76
2023-05-09T08:19:40.377Z,39.71
2023-05-09T08:20:40.413Z,39.66
2023-05-09T08:21:40.491Z,39.67
2023-05-09T08:22:40.542Z,39.67
2023-05-09T08:23:40.571Z,39.65
2023-05-09T08:24:40.624Z,39.54
2023-05-09T08:25:41.339Z,39.55
2023-05-09T08:26:41.457Z,39.55
2023-05-09T08:27:40.688Z,39.61
2023-05-09T08:28:40.770Z,38.92
2023-05-09T08:29:40.813Z,37.96
2023-05-09T08:30:40.778Z,38.11
2023-05-09T08:31:40.990Z,38.23
2023-05-09T08:32:41.138Z,37.96
2023-05-09T08:33:41.957Z,37.78
2023-05-09T08:34:40.990Z,37.93
2023-05-09T08:35:41.112Z,37.95
2023-05-09T08:36:41.109Z,37.96
2023-05-09T08:37:40.963Z,37.98
2023-05-09T08:38:41.029Z,37.99
2023-05-09T08:39:41.027Z,37.78
2023-05-09T08:40:41.063Z,37.84
2023-05-09T08:41:41.062Z,37.90
2023-05-09T08:42:41.074Z,38.18
2023-05-09T08:43:41.280Z,38.18
2023-05-09T08:44:41.068Z,38.35
2023-05-09T08:45:41.071Z,39.27
2023-05-09T08:46:41.078Z,38.83
2023-05-09T08:47:41.337Z,38.82
2023-05-09T08:48:41.176Z,39.62
2023-05-09T08:49:41.118Z,39.24
2023-05-09T08:50:41.143Z,38.89
2023-05-09T08:51:41.080Z,38.78
2023-05-09T08:52:41.105Z,38.94
2023-05-09T08:53:41.089Z,38.88
2023-05-09T08:54:41.367Z,38.77
2023-05-09T08:55:41.430Z,38.67
2023-05-09T08:56:41.781Z,38.78
2023-05-09T08:57:41.294Z,38.81
2023-05-09T08:58:41.352Z,38.77
2023-05-09T08:59:41.881Z,38.73
2023-05-09T09:00:41.173Z,38.72
2023-05-09T09:01:41.308Z,38.77
2023-05-09T09:02:41.213Z,38.90
2023-05-09T09:03:41.180Z,38.92
2023-05-09T09:04:41.378Z,38.73
2023-05-09T09:05:42.367Z,38.39
2023-05-09T09:06:41.196Z,38.73
2023-05-09T09:07:41.503Z,38.62
2023-05-09T09:08:41.347Z,38.42
2023-05-09T09:09:41.232Z,38.48
2023-05-09T09:10:41.334Z,38.84
2023-05-09T09:11:41.296Z,38.79
2023-05-09T09:12:41.345Z,38.65
2023-05-09T09:13:41.276Z,38.63
2023-05-09T09:14:41.376Z,38.62
2023-05-09T09:15:41.980Z,38.39
2023-05-09T09:16:41.613Z,38.56
2023-05-09T09:17:41.428Z,37.93
2023-05-09T09:18:41.305Z,38.38
2023-05-09T09:19:41.436Z,38.38
2023-05-09T09:20:41.826Z,38.63
2023-05-09T09:21:41.402Z,39.35
2023-05-09T09:22:41.523Z,39.09
2023-05-09T09:23:41.465Z,38.80
2023-05-09T09:24:41.466Z,38.55
2023-05-09T09:25:41.444Z,37.71
2023-05-09T09:26:41.474Z,38.34
2023-05-09T09:27:43.420Z,37.94
2023-05-09T09:28:42.378Z,38.17
2023-05-09T09:29:41.549Z,38.05
2023-05-09T09:30:41.921Z,37.90
2023-05-09T09:31:41.538Z,38.08
2023-05-09T09:32:41.589Z,38.14
2023-05-09T09:33:41.692Z,38.24
2023-05-09T09:34:41.598Z,38.30
2023-05-09T09:35:41.813Z,38.23
2023-05-09T09:36:41.897Z,38.18
2023-05-09T09:37:41.749Z,38.13
2023-05-09T09:38:41.762Z,38.07
2023-05-09T09:39:41.837Z,38.04
2023-05-09T09:40:41.805Z,38.01
2023-05-09T09:41:41.902Z,37.93
2023-05-09T09:42:41.937Z,37.86
2023-05-09T09:43:41.978Z,37.80
2023-05-09T09:44:42.332Z,37.72
2023-05-09T09:45:42.079Z,37.67
2023-05-09T09:46:42.115Z,37.65
2023-05-09T09:47:42.372Z,37.60
2023-05-09T09:48:42.301Z,37.57
2023-05-09T09:49:43.555Z,37.51
2023-05-09T09:50:42.324Z,37.44
2023-05-09T09:51:42.444Z,37.42
2023-05-09T09:52:42.525Z,37.38
2023-05-09T09:53:42.526Z,37.36
2023-05-09T09:54:42.573Z,37.32
2023-05-09T09:55:44.192Z,37.28
2023-05-09T09:56:42.632Z,37.27
2023-05-09T09:57:42.616Z,37.22
2023-05-09T09:58:42.621Z,37.19
2023-05-09T09:59:42.588Z,37.04
2023-05-09T10:00:42.667Z,37.10
2023-05-09T10:01:42.687Z,37.05
2023-05-09T10:02:42.635Z,37.04
2023-05-09T10:03:42.573Z,37.02
2023-05-09T10:04:42.612Z,37.02
2023-05-09T10:05:42.573Z,36.92
2023-05-09T10:06:42.568Z,36.90
2023-05-09T10:07:42.584Z,36.95
2023-05-09T10:08:42.626Z,36.89
2023-05-09T10:09:42.540Z,36.85
2023-05-09T10:10:42.556Z,36.85
2023-05-09T10:11:42.561Z,36.79
2023-05-09T10:12:42.543Z,36.85
2023-05-09T10:13:42.587Z,36.84
2023-05-09T10:14:42.482Z,36.89
2023-05-09T10:15:53.090Z,36.87
2023-05-09T10:16:44.771Z,36.89
2023-05-09T10:17:42.715Z,36.87
2023-05-09T10:18:42.759Z,36.87
2023-05-09T10:19:42.495Z,36.85
2023-05-09T10:20:42.536Z,36.89
2023-05-09T10:21:42.566Z,36.84
2023-05-09T10:22:42.578Z,36.86
2023-05-09T10:23:42.651Z,36.86
2023-05-09T10:24:42.742Z,36.85
2023-05-09T10:25:42.686Z,36.84
2023-05-09T10:26:42.706Z,36.87
2023-05-09T10:27:42.792Z,36.81
2023-05-09T10:28:42.836Z,36.83
2023-05-09T10:29:42.908Z,36.80
2023-05-09T10:30:42.969Z,36.83
2023-05-09T10:31:42.928Z,36.82
2023-05-09T10:32:43.057Z,36.82
2023-05-09T10:33:42.982Z,36.76
2023-05-09T10:34:43.023Z,36.77
2023-05-09T10:35:43.079Z,36.80
2023-05-09T10:36:43.110Z,36.78
2023-05-09T10:37:43.150Z,36.73
2023-05-09T10:38:43.176Z,36.77
2023-05-09T10:39:43.277Z,36.72
2023-05-09T10:40:43.335Z,36.75
2023-05-09T10:41:43.427Z,36.72
2023-05-09T10:42:43.389Z,36.73
2023-05-09T10:43:43.417Z,36.67
2023-05-09T10:44:43.431Z,36.67
2023-05-09T10:45:43.844Z,36.67
2023-05-09T10:46:43.552Z,36.69
2023-05-09T10:47:43.684Z,36.67
2023-05-09T10:48:43.649Z,36.63
2023-05-09T10:49:43.629Z,36.66
2023-05-09T10:50:43.685Z,36.62
2023-05-09T10:51:43.762Z,36.58
2023-05-09T10:52:43.800Z,36.58
2023-05-09T10:53:43.811Z,36.58
2023-05-09T10:54:43.888Z,36.60
2023-05-09T10:55:43.868Z,36.58
2023-05-09T10:56:43.957Z,36.56
2023-05-09T10:57:43.981Z,36.55
2023-05-09T10:58:43.946Z,36.51
2023-05-09T10:59:44.019Z,36.48
2023-05-09T11:00:44.005Z,36.47
2023-05-09T11:01:44.106Z,36.44
2023-05-09T11:02:44.140Z,36.39
2023-05-09T11:03:44.226Z,36.41
2023-05-09T11:04:44.221Z,36.46
2023-05-09T11:05:44.195Z,36.42
2023-05-09T11:06:44.275Z,36.42
2023-05-09T11:07:44.304Z,36.42
2023-05-09T11:08:44.309Z,36.45
2023-05-09T11:09:44.321Z,36.43
2023-05-09T11:10:44.439Z,36.42
2023-05-09T11:11:44.386Z,36.36
2023-05-09T11:12:44.555Z,36.39
2023-05-09T11:13:44.524Z,36.36
2023-05-09T11:14:44.574Z,36.34
2023-05-09T11:15:44.528Z,36.36
2023-05-09T11:16:44.713Z,36.31
2023-05-09T11:17:44.824Z,36.32
2023-05-09T11:18:44.659Z,36.35
2023-05-09T11:19:44.668Z,36.24
2023-05-09T11:20:44.894Z,36.27
2023-05-09T11:21:45.406Z,36.27
2023-05-09T11:22:44.795Z,36.29
2023-05-09T11:23:44.878Z,36.26
2023-05-09T11:24:44.915Z,36.25
2023-05-09T11:25:44.918Z,36.26
2023-05-09T11:26:44.919Z,36.25
2023-05-09T11:27:44.951Z,36.25
2023-05-09T11:28:45.066Z,36.20
2023-05-09T11:29:45.041Z,36.22
2023-05-09T11:30:45.345Z,36.20
2023-05-09T11:31:45.109Z,36.18
2023-05-09T11:32:45.360Z,36.19
2023-05-09T11:33:45.220Z,36.16
2023-05-09T11:34:45.182Z,36.13
2023-05-09T11:35:45.236Z,36.13
2023-05-09T11:36:45.234Z,36.12
2023-05-09T11:37:45.252Z,36.09
2023-05-09T11:38:45.384Z,36.11
2023-05-09T11:39:45.369Z,36.09
2023-05-09T11:40:45.352Z,36.08
2023-05-09T11:41:45.362Z,36.06
2023-05-09T11:42:45.442Z,36.06
2023-05-09T11:43:45.453Z,36.04
2023-05-09T11:44:45.592Z,36.01
2023-05-09T11:45:45.530Z,35.98
2023-05-09T11:46:45.517Z,35.98
2023-05-09T11:47:45.737Z,35.97
2023-05-09T11:48:45.592Z,35.97
2023-05-09T11:49:45.589Z,35.96
2023-05-09T11:50:45.596Z,35.93
2023-05-09T11:51:45.641Z,35.92
2023-05-09T11:52:45.651Z,35.85
2023-05-09T11:53:45.666Z,35.84
2023-05-09T11:54:45.744Z,35.83
2023-05-09T11:55:45.778Z,35.83
2023-05-09T11:56:45.772Z,35.82
2023-05-09T11:57:45.794Z,35.83
2023-05-09T11:58:45.838Z,35.74
2023-05-09T11:59:45.865Z,35.73
2023-05-09T12:00:46.002Z,35.75
2023-05-09T12:01:45.904Z,35.73
2023-05-09T12:02:46.085Z,35.72
2023-05-09T12:03:46.040Z,35.69
2023-05-09T12:04:45.982Z,35.68
2023-05-09T12:05:45.971Z,35.69
2023-05-09T12:06:46.020Z,35.62
2023-05-09T12:07:46.064Z,35.62
2023-05-09T12:08:46.131Z,35.61
2023-05-09T12:09:46.134Z,35.59
2023-05-09T12:10:46.184Z,35.61
2023-05-09T12:11:46.736Z,35.58
2023-05-09T12:12:46.262Z,35.56
2023-05-09T12:13:46.213Z,35.51
2023-05-09T12:14:46.271Z,35.49
2023-05-09T12:15:46.337Z,35.50
2023-05-09T12:16:46.438Z,35.48
2023-05-09T12:17:47.082Z,35.51
2023-05-09T12:18:46.406Z,35.46
2023-05-09T12:19:46.407Z,35.45
2023-05-09T12:20:46.445Z,35.42
2023-05-09T12:21:46.454Z,35.41
2023-05-09T12:22:46.526Z,35.41
2023-05-09T12:23:47.494Z,35.44
2023-05-09T12:24:46.688Z,35.40
2023-05-09T12:25:46.651Z,35.33
2023-05-09T12:26:46.651Z,35.34
2023-05-09T12:27:46.711Z,35.38
2023-05-09T12:28:46.775Z,35.32
2023-05-09T12:29:46.753Z,35.31
2023-05-09T12:30:46.788Z,35.27
2023-05-09T12:31:46.820Z,35.28
2023-05-09T12:32:47.009Z,35.27
2023-05-09T12:33:46.855Z,35.28
2023-05-09T12:34:46.865Z,35.22
2023-05-09T12:35:46.928Z,35.21
2023-05-09T12:36:46.967Z,35.22
2023-05-09T12:37:46.968Z,35.18
2023-05-09T12:38:47.058Z,35.17
2023-05-09T12:39:47.052Z,35.24
2023-05-09T12:40:47.213Z,35.20
2023-05-09T12:41:57.864Z,35.12
2023-05-09T12:42:48.132Z,35.12
2023-05-09T12:43:47.075Z,35.10
2023-05-09T12:44:47.086Z,35.16
2023-05-09T12:45:47.094Z,35.10
2023-05-09T12:46:47.184Z,35.04
2023-05-09T12:47:47.060Z,35.05
2023-05-09T12:48:47.146Z,35.03
2023-05-09T12:49:47.118Z,35.07
2023-05-09T12:50:47.144Z,35.08
2023-05-09T12:51:47.035Z,35.05
2023-05-09T12:53:01.383Z,35.06